createdAt,value
2018-06-01T00:01:12.273Z,1.75
2018-06-01T00:03:46.481Z,1.50
2018-06-01T00:06:21.528Z,2.03
2018-06-01T00:08:55.732Z,1.70
2018-06-01T00:11:30.377Z,1.75
2018-06-01T00:14:05.547Z,1.95
2018-06-01T00:16:39.791Z,1.50
2018-06-01T00:19:17.558Z,1.70
2018-06-01T00:21:52.158Z,1.65
2018-06-01T00:24:25.817Z,2.62
2018-06-01T00:26:59.500Z,1.80
2018-06-01T00:29:33.139Z,2.03
2018-06-01T00:32:07.756Z,2.10
2018-06-01T00:34:42.332Z,1.80
2018-06-01T00:37:16.552Z,1.90
2018-06-01T00:39:50.185Z,1.73
2018-06-01T00:42:23.859Z,1.83
2018-06-01T00:44:57.503Z,2.03
2018-06-01T00:47:31.740Z,1.90
2018-06-01T00:50:05.835Z,1.73
2018-06-01T00:52:39.523Z,1.70
2018-06-01T00:55:24.336Z,2.13
2018-06-01T00:57:58.020Z,1.83
2018-06-01T01:00:32.408Z,2.00
2018-06-01T01:03:05.766Z,1.77
2018-06-01T01:05:39.398Z,1.70
2018-06-01T01:08:14.032Z,1.80
2018-06-01T01:10:47.653Z,2.40
2018-06-01T01:13:21.770Z,2.40
2018-06-01T01:15:56.167Z,2.90
2018-06-01T01:18:30.860Z,2.73
2018-06-01T01:21:05.477Z,2.27
2018-06-01T01:23:39.143Z,2.37
2018-06-01T01:26:12.786Z,2.50
2018-06-01T01:28:46.473Z,2.10
2018-06-01T01:31:20.122Z,2.20
2018-06-01T01:33:53.795Z,2.10
2018-06-01T01:36:27.479Z,2.40
2018-06-01T01:39:01.140Z,2.57
2018-06-01T01:41:35.545Z,2.07
2018-06-01T01:44:09.214Z,2.27
2018-06-01T01:46:42.846Z,1.73
2018-06-01T01:49:16.517Z,2.07
2018-06-01T01:51:50.147Z,2.13
2018-06-01T01:54:23.825Z,2.03
2018-06-01T01:56:57.464Z,1.80
2018-06-01T01:59:31.955Z,2.40
2018-06-01T02:02:05.593Z,2.13
2018-06-01T02:04:39.264Z,2.40
2018-06-01T02:07:12.891Z,2.13
2018-06-01T02:09:47.327Z,2.10
2018-06-01T02:12:21.975Z,2.07
2018-06-01T02:14:56.571Z,2.20
2018-06-01T02:17:31.208Z,2.00
2018-06-01T02:20:04.556Z,2.20
2018-06-01T02:22:39.028Z,1.93
2018-06-01T02:25:12.670Z,2.20
2018-06-01T02:27:46.349Z,1.97
2018-06-01T02:30:19.734Z,1.97
2018-06-01T02:32:53.421Z,2.33
2018-06-01T02:35:28.192Z,2.10
2018-06-01T02:38:01.869Z,2.00
2018-06-01T02:40:36.468Z,2.30
2018-06-01T02:43:11.112Z,2.10
2018-06-01T02:45:44.420Z,2.23
2018-06-01T02:48:18.099Z,2.23
2018-06-01T02:50:51.731Z,2.40
2018-06-01T02:53:25.419Z,2.17
2018-06-01T02:55:59.062Z,2.40
2018-06-01T02:58:33.503Z,2.27
2018-06-01T03:01:06.800Z,2.10
2018-06-01T03:03:40.480Z,2.83
2018-06-01T03:06:15.103Z,2.60
2018-06-01T03:08:48.568Z,2.67
2018-06-01T03:11:22.251Z,2.20
2018-06-01T03:13:55.921Z,2.00
2018-06-01T03:16:30.569Z,3.07
2018-06-01T03:19:04.582Z,2.83
2018-06-01T03:21:38.230Z,2.73
2018-06-01T03:24:12.664Z,2.90
2018-06-01T03:26:46.336Z,2.03
2018-06-01T03:29:20.003Z,2.00
2018-06-01T03:31:54.993Z,1.80
2018-06-01T03:34:29.248Z,2.00
2018-06-01T03:37:04.215Z,2.22
2018-06-01T03:39:38.461Z,1.98
2018-06-01T03:42:12.660Z,1.80
2018-06-01T03:44:47.860Z,2.28
2018-06-01T03:47:22.056Z,1.80
2018-06-01T03:49:57.051Z,2.28
2018-06-01T03:52:31.251Z,1.80
2018-06-01T03:55:05.495Z,1.90
2018-06-01T03:57:40.663Z,1.90
2018-06-01T04:00:14.911Z,1.75
2018-06-01T04:02:49.110Z,1.90
2018-06-01T04:05:23.338Z,1.50
2018-06-01T04:07:57.536Z,1.83
2018-06-01T04:10:32.748Z,1.98
2018-06-01T04:13:07.708Z,1.90
2018-06-01T04:15:41.640Z,1.65
2018-06-01T04:18:15.853Z,1.92
2018-06-01T04:20:50.093Z,1.80
2018-06-01T04:23:24.356Z,1.92
2018-06-01T04:25:58.625Z,1.90
2018-06-01T04:28:32.814Z,2.30
2018-06-01T04:31:07.051Z,2.40
2018-06-01T04:33:41.323Z,1.70
2018-06-01T04:36:16.539Z,1.80
2018-06-01T04:38:50.748Z,1.90
2018-06-01T04:41:24.991Z,2.12
2018-06-01T04:44:00.620Z,2.22
2018-06-01T04:46:34.855Z,2.00
2018-06-01T04:49:09.058Z,2.35
2018-06-01T04:51:43.896Z,2.03
2018-06-01T04:54:19.056Z,2.03
2018-06-01T04:56:53.300Z,1.90
2018-06-01T04:59:28.275Z,2.50
2018-06-01T05:02:03.486Z,2.35
2018-06-01T05:04:37.694Z,2.30
2018-06-01T05:07:12.911Z,2.10
2018-06-01T05:09:47.872Z,2.37
2018-06-01T05:12:22.108Z,2.15
2018-06-01T05:14:56.356Z,2.40
2018-06-01T05:17:30.590Z,2.30
2018-06-01T05:20:05.589Z,2.17
2018-06-01T05:22:39.831Z,2.15
2018-06-01T05:25:15.028Z,2.10
2018-06-01T05:27:49.995Z,1.90
2018-06-01T05:30:24.211Z,2.28
2018-06-01T05:32:58.460Z,2.00
2018-06-01T05:35:32.756Z,2.30
2018-06-01T05:38:07.150Z,1.87
2018-06-01T05:40:41.345Z,2.30
2018-06-01T05:43:15.599Z,2.08
2018-06-01T05:45:50.564Z,2.37
2018-06-01T05:48:24.809Z,2.08
2018-06-01T05:50:59.994Z,2.15
2018-06-01T05:53:35.009Z,2.45
2018-06-01T05:56:09.987Z,2.20
2018-06-01T05:58:44.233Z,2.00
2018-06-01T06:01:18.449Z,2.30
2018-06-01T06:03:52.683Z,3.00
2018-06-01T06:06:27.359Z,2.70
2018-06-01T06:09:01.594Z,2.83
2018-06-01T06:11:36.474Z,3.10
2018-06-01T06:14:10.708Z,2.50
2018-06-01T06:16:45.910Z,2.50
2018-06-01T06:19:20.870Z,2.60
2018-06-01T06:21:54.820Z,3.00
2018-06-01T06:24:28.725Z,2.57
2018-06-01T06:27:02.689Z,2.60
2018-06-01T06:29:36.604Z,2.80
2018-06-01T06:32:10.560Z,2.73
2018-06-01T06:34:44.457Z,2.93
2018-06-01T06:37:19.171Z,2.90
2018-06-01T06:39:53.103Z,3.03
2018-06-01T06:42:27.094Z,2.90
2018-06-01T06:45:01.001Z,2.90
2018-06-01T06:47:36.495Z,3.30
2018-06-01T06:50:11.399Z,2.93
2018-06-01T06:52:47.380Z,3.40
2018-06-01T06:55:21.296Z,3.03
2018-06-01T06:57:56.216Z,3.43
2018-06-01T07:00:30.150Z,3.57
2018-06-01T07:03:04.101Z,3.77
2018-06-01T07:05:41.619Z,3.60
2018-06-01T07:08:16.567Z,3.30
2018-06-01T07:10:50.475Z,3.00
2018-06-01T07:13:24.413Z,3.40
2018-06-01T07:15:58.491Z,3.03
2018-06-01T07:18:32.674Z,3.40
2018-06-01T07:21:25.999Z,3.27
2018-06-01T07:24:00.994Z,3.50
2018-06-01T07:26:38.623Z,3.10
2018-06-01T07:29:12.742Z,3.33
2018-06-01T07:31:48.223Z,3.53
2018-06-01T07:34:23.043Z,3.50
2018-06-01T07:36:56.992Z,2.90
2018-06-01T07:39:30.894Z,3.30
2018-06-01T07:42:04.876Z,3.70
2018-06-01T07:44:38.812Z,3.50
2018-06-01T07:47:12.733Z,3.20
2018-06-01T07:49:46.691Z,3.70
2018-06-01T07:52:20.593Z,3.30
2018-06-01T07:54:54.537Z,3.73
2018-06-01T07:57:28.444Z,3.63
2018-06-01T08:00:02.385Z,3.90
2018-06-01T08:02:36.299Z,3.97
2018-06-01T08:05:11.043Z,3.90
2018-06-01T08:07:46.677Z,4.10
2018-06-01T08:10:22.352Z,4.10
2018-06-01T08:12:56.291Z,3.80
2018-06-01T08:15:30.200Z,4.50
2018-06-01T08:18:04.147Z,4.00
2018-06-01T08:20:38.832Z,4.33
2018-06-01T08:23:13.756Z,4.20
2018-06-01T08:25:47.666Z,4.63
2018-06-01T08:28:21.609Z,4.30
2018-06-01T08:30:55.512Z,4.47
2018-06-01T08:33:29.478Z,4.43
2018-06-01T08:36:03.386Z,4.53
2018-06-01T08:38:37.340Z,4.70
2018-06-01T08:41:11.262Z,4.07
2018-06-01T08:43:45.977Z,4.60
2018-06-01T08:46:20.691Z,4.17
2018-06-01T08:48:54.796Z,4.80
2018-06-01T08:51:28.699Z,4.57
2018-06-01T08:54:03.592Z,4.07
2018-06-01T08:56:37.497Z,4.00
2018-06-01T08:59:11.132Z,3.80
2018-06-01T09:01:46.191Z,3.10
2018-06-01T09:04:21.865Z,3.83
2018-06-01T09:06:55.948Z,4.00
2018-06-01T09:09:30.662Z,3.33
2018-06-01T09:12:04.755Z,3.53
2018-06-01T09:14:39.663Z,3.80
2018-06-01T09:17:13.570Z,3.70
2018-06-01T09:19:48.478Z,3.53
2018-06-01T09:22:22.403Z,3.90
2018-06-01T09:24:56.343Z,3.27
2018-06-01T09:27:30.261Z,3.27
2018-06-01T09:30:03.885Z,3.23
2018-06-01T09:32:38.613Z,3.00
2018-06-01T09:35:13.334Z,2.73
2018-06-01T09:37:48.981Z,3.60
2018-06-01T09:40:23.700Z,3.73
2018-06-01T09:42:59.989Z,3.33
2018-06-01T09:45:34.174Z,3.30
2018-06-01T09:48:08.854Z,3.30
2018-06-01T09:50:42.789Z,3.00
2018-06-01T09:53:16.697Z,3.40
2018-06-01T09:55:50.639Z,3.13
2018-06-01T09:58:24.580Z,3.13
2018-06-01T10:01:00.002Z,4.17
2018-06-01T10:03:33.941Z,3.50
2018-06-01T10:06:07.559Z,3.47
2018-06-01T10:08:41.499Z,3.77
2018-06-01T10:11:17.163Z,3.00
2018-06-01T10:13:52.080Z,3.30
2018-06-01T10:16:25.982Z,3.70
2018-06-01T10:19:00.696Z,3.23
2018-06-01T10:21:35.380Z,3.60
2018-06-01T10:24:09.321Z,3.00
2018-06-01T10:26:43.221Z,3.20
2018-06-01T10:29:17.154Z,3.33
2018-06-01T10:31:51.822Z,3.17
2018-06-01T10:34:26.806Z,3.23
2018-06-01T10:37:01.513Z,3.33
2018-06-01T10:39:35.681Z,2.93
2018-06-01T10:42:09.788Z,3.40
2018-06-01T10:44:43.720Z,2.80
2018-06-01T10:47:18.587Z,2.50
2018-06-01T10:49:54.311Z,3.07
2018-06-01T10:52:28.255Z,3.00
2018-06-01T10:55:02.933Z,2.87
2018-06-01T10:57:36.872Z,3.00
2018-06-01T11:00:10.811Z,3.13
2018-06-01T11:02:44.769Z,3.23
2018-06-01T11:05:19.100Z,3.00
2018-06-01T11:08:00.424Z,3.03
2018-06-01T11:10:35.415Z,3.13
2018-06-01T11:13:09.324Z,3.40
2018-06-01T11:15:44.444Z,2.80
2018-06-01T11:18:18.422Z,3.10
2018-06-01T11:20:53.285Z,3.00
2018-06-01T11:23:28.021Z,3.27
2018-06-01T11:26:03.579Z,3.10
2018-06-01T11:28:38.120Z,3.53
2018-06-01T11:31:14.611Z,3.70
2018-06-01T11:33:52.647Z,3.80
2018-06-01T11:36:28.366Z,3.50
2018-06-01T11:39:09.288Z,3.60
2018-06-01T11:41:47.181Z,3.77
2018-06-01T11:44:22.916Z,3.90
2018-06-01T11:46:57.848Z,3.97
2018-06-01T11:49:31.790Z,4.00
2018-06-01T11:52:06.773Z,4.10
2018-06-01T11:54:40.704Z,3.93
2018-06-01T11:57:15.411Z,4.20
2018-06-01T11:59:49.320Z,4.23
2018-06-01T12:02:23.258Z,4.00
2018-06-01T12:04:59.577Z,4.07
2018-06-01T12:07:34.749Z,4.00
2018-06-01T12:10:09.367Z,4.20
2018-06-01T12:12:44.080Z,4.07
2018-06-01T12:15:18.935Z,4.23
2018-06-01T12:17:54.620Z,4.40
2018-06-01T12:20:28.568Z,4.20
2018-06-01T12:23:02.476Z,4.30
2018-06-01T12:25:36.428Z,4.33
2018-06-01T12:28:10.341Z,5.30
2018-06-01T12:30:48.318Z,4.33
2018-06-01T12:33:23.961Z,5.10
2018-06-01T12:35:57.907Z,4.70
2018-06-01T12:38:32.279Z,4.70
2018-06-01T12:41:08.353Z,4.47
2018-06-01T12:43:43.749Z,3.90
2018-06-01T12:46:17.721Z,4.20
2018-06-01T12:48:51.677Z,4.80
2018-06-01T12:51:25.581Z,2.90
2018-06-01T12:54:00.525Z,2.73
2018-06-01T12:56:34.595Z,3.30
2018-06-01T12:59:08.533Z,3.30
2018-06-01T13:01:42.436Z,3.63
2018-06-01T13:04:16.374Z,3.77
2018-06-01T13:06:52.030Z,3.20
2018-06-01T13:09:25.988Z,3.10
2018-06-01T13:11:59.896Z,3.80
2018-06-01T13:14:33.832Z,3.17
2018-06-01T13:17:08.704Z,3.40
2018-06-01T13:19:42.652Z,3.47
2018-06-01T13:22:16.605Z,3.30
2018-06-01T13:24:51.513Z,3.07
2018-06-01T13:27:26.188Z,3.10
2018-06-01T13:30:00.135Z,3.03
2018-06-01T13:32:34.051Z,3.10
2018-06-01T13:35:08.942Z,3.57
2018-06-01T13:37:42.843Z,3.60
2018-06-01T13:40:16.774Z,2.97
2018-06-01T13:42:50.713Z,3.67
2018-06-01T13:45:24.613Z,3.30
2018-06-01T13:47:59.312Z,3.37
2018-06-01T13:50:33.215Z,3.10
2018-06-01T13:53:07.167Z,3.63
2018-06-01T13:55:41.070Z,3.13
2018-06-01T13:58:15.007Z,3.10
2018-06-01T14:00:48.918Z,3.43
2018-06-01T14:03:22.876Z,2.80
2018-06-01T14:05:57.556Z,3.70
2018-06-01T14:08:31.499Z,3.50
2018-06-01T14:11:06.187Z,3.93
2018-06-01T14:13:40.149Z,3.60
2018-06-01T14:16:15.636Z,3.37
2018-06-01T14:18:49.585Z,3.40
2018-06-01T14:21:23.491Z,3.60
2018-06-01T14:23:57.428Z,3.43
2018-06-01T14:26:32.321Z,3.83
2018-06-01T14:29:06.416Z,3.20
2018-06-01T14:31:40.331Z,3.60
2018-06-01T14:34:14.272Z,4.00
2018-06-01T14:36:49.154Z,3.50
2018-06-01T14:39:24.084Z,3.57
2018-06-01T14:41:57.997Z,3.20
2018-06-01T14:44:31.945Z,3.40
2018-06-01T14:47:06.388Z,3.80
2018-06-01T14:49:40.423Z,3.07
2018-06-01T14:52:15.328Z,3.03
2018-06-01T14:54:49.267Z,3.10
2018-06-01T14:57:24.139Z,3.23
2018-06-01T14:59:58.368Z,3.20
2018-06-01T15:02:33.375Z,3.03
2018-06-01T15:05:07.584Z,3.33
2018-06-01T15:07:41.824Z,3.50
2018-06-01T15:10:16.793Z,3.20
2018-06-01T15:12:51.040Z,3.50
2018-06-01T15:15:26.235Z,3.00
2018-06-01T15:18:00.476Z,3.25
2018-06-01T15:20:34.672Z,3.15
2018-06-01T15:23:08.900Z,3.03
2018-06-01T15:25:43.166Z,3.47
2018-06-01T15:28:17.532Z,3.33
2018-06-01T15:30:51.735Z,3.55
2018-06-01T15:33:25.971Z,2.78
2018-06-01T15:36:01.134Z,3.65
2018-06-01T15:38:35.364Z,3.53
2018-06-01T15:41:10.325Z,3.20
2018-06-01T15:43:44.549Z,3.50
2018-06-01T15:46:19.717Z,3.37
2018-06-01T15:48:54.024Z,3.08
2018-06-01T15:51:28.228Z,3.25
2018-06-01T15:54:02.212Z,4.50
2018-06-01T15:56:37.423Z,3.60
2018-06-01T15:59:11.668Z,3.50
2018-06-01T16:01:47.626Z,3.40
2018-06-01T16:04:21.834Z,3.50
2018-06-01T16:06:55.745Z,3.40
2018-06-01T16:09:29.941Z,3.25
2018-06-01T16:12:04.943Z,3.03
2018-06-01T16:14:39.156Z,3.15
2018-06-01T16:17:13.410Z,3.03
2018-06-01T16:19:47.609Z,2.87
2018-06-01T16:22:21.847Z,3.22
2018-06-01T16:24:56.097Z,3.10
2018-06-01T16:27:31.302Z,3.40
2018-06-01T16:30:05.532Z,3.20
2018-06-01T16:32:40.527Z,3.05
2018-06-01T16:35:14.732Z,3.25
2018-06-01T16:37:48.963Z,3.00
2018-06-01T16:40:23.165Z,3.12
2018-06-01T16:42:58.350Z,3.25
2018-06-01T16:45:32.555Z,3.25
2018-06-01T16:48:07.754Z,3.08
2018-06-01T16:50:41.959Z,3.45
2018-06-01T16:53:16.188Z,3.50
2018-06-01T16:55:50.396Z,3.25
2018-06-01T16:58:25.618Z,3.62
2018-06-01T17:01:00.613Z,3.83
2018-06-01T17:03:34.803Z,3.47
2018-06-01T17:06:09.714Z,4.03
2018-06-01T17:08:43.909Z,3.30
2018-06-01T17:11:18.915Z,3.60
2018-06-01T17:13:53.112Z,3.97
2018-06-01T17:16:28.439Z,4.45
2018-06-01T17:19:02.677Z,4.18
2018-06-01T17:21:36.905Z,4.25
2018-06-01T17:24:12.090Z,4.47
2018-06-01T17:26:46.320Z,4.30
2018-06-01T17:29:20.521Z,4.22
2018-06-01T17:31:55.740Z,4.37
2018-06-01T17:34:29.990Z,4.18
2018-06-01T17:37:05.206Z,4.37
2018-06-01T17:39:40.434Z,4.65
2018-06-01T17:42:14.662Z,4.68
2018-06-01T17:44:48.855Z,4.28
2018-06-01T17:47:23.102Z,4.72
2018-06-01T17:49:57.349Z,4.32
2018-06-01T17:52:31.792Z,4.40
2018-06-01T17:55:05.656Z,4.78
2018-06-01T17:57:40.916Z,4.50
2018-06-01T18:00:15.113Z,4.80
2018-06-01T18:02:49.346Z,4.40
2018-06-01T18:05:23.540Z,4.57
2018-06-01T18:07:57.775Z,4.97
2018-06-01T18:10:31.965Z,5.25
2018-06-01T18:13:06.214Z,4.43
2018-06-01T18:15:41.209Z,4.90
2018-06-01T18:18:16.416Z,4.70
2018-06-01T18:20:50.655Z,4.40
2018-06-01T18:23:24.916Z,4.97
2018-06-01T18:25:59.126Z,4.80
2018-06-01T18:28:33.375Z,4.55
2018-06-01T18:31:07.576Z,4.80
2018-06-01T18:33:41.813Z,4.75
2018-06-01T18:36:16.011Z,4.70
2018-06-01T18:38:51.240Z,4.55
2018-06-01T18:41:25.442Z,5.05
2018-06-01T18:44:00.466Z,4.80
2018-06-01T18:46:35.435Z,4.57
2018-06-01T18:49:10.676Z,4.93
2018-06-01T18:51:44.849Z,5.18
2018-06-01T18:54:19.856Z,4.15
2018-06-01T18:56:54.065Z,4.93
2018-06-01T18:59:28.299Z,4.03
2018-06-01T19:02:03.271Z,4.15
2018-06-01T19:04:37.710Z,4.25
2018-06-01T19:07:12.877Z,4.37
2018-06-01T19:09:47.112Z,3.75
2018-06-01T19:12:21.308Z,3.53
2018-06-01T19:14:55.563Z,3.95
2018-06-01T19:17:29.823Z,3.97
2018-06-01T19:20:04.859Z,3.92
2018-06-01T19:22:39.051Z,3.95
2018-06-01T19:25:13.291Z,3.90
2018-06-01T19:27:47.488Z,4.07
2018-06-01T19:30:22.683Z,3.90
2018-06-01T19:32:57.852Z,4.07
2018-06-01T19:35:32.092Z,4.12
2018-06-01T19:38:05.963Z,3.60
2018-06-01T19:40:40.200Z,3.90
2018-06-01T19:43:14.397Z,3.78
2018-06-01T19:45:48.633Z,4.22
2018-06-01T19:48:22.828Z,4.85
2018-06-01T19:50:58.046Z,4.10
2018-06-01T19:53:33.955Z,4.10
2018-06-01T19:56:09.148Z,4.40
2018-06-01T19:58:43.326Z,4.30
2018-06-01T20:01:19.361Z,4.40
2018-06-01T20:03:53.540Z,4.60
2018-06-01T20:06:28.762Z,5.10
2018-06-01T20:09:02.949Z,5.55
2018-06-01T20:11:37.179Z,6.30
2018-06-01T20:14:12.330Z,7.00
2018-06-01T20:16:46.599Z,7.07
2018-06-01T20:19:21.560Z,6.07
2018-06-01T20:21:55.808Z,6.03
2018-06-01T20:24:30.002Z,5.30
2018-06-01T20:27:05.238Z,6.07
2018-06-01T20:29:39.448Z,5.80
2018-06-01T20:32:14.692Z,5.57
2018-06-01T20:34:48.887Z,6.32
2018-06-01T20:37:23.194Z,6.47
2018-06-01T20:39:57.447Z,5.60
2018-06-01T20:42:32.601Z,5.32
2018-06-01T20:45:06.487Z,6.30
2018-06-01T20:47:40.725Z,5.90
2018-06-01T20:50:14.926Z,5.97
2018-06-01T20:52:50.134Z,5.03
2018-06-01T20:55:24.336Z,5.87
2018-06-01T21:00:56.212Z,5.87
2018-06-01T21:03:30.653Z,6.25
2018-06-01T21:06:05.420Z,6.20
2018-06-01T21:08:39.592Z,6.85
2018-06-01T21:11:13.798Z,6.82
2018-06-01T21:13:48.078Z,7.12
2018-06-01T21:16:23.052Z,7.62
2018-06-01T21:18:57.278Z,6.50
2018-06-01T21:21:31.670Z,7.00
2018-06-01T21:24:05.904Z,6.85
2018-06-01T21:26:40.123Z,7.22
2018-06-01T21:29:14.371Z,6.85
2018-06-01T21:31:48.570Z,7.10
2018-06-01T21:34:22.804Z,7.50
2018-06-01T21:36:57.016Z,7.10
2018-06-01T21:39:31.262Z,7.32
2018-06-01T21:42:05.463Z,7.65
2018-06-01T21:44:41.437Z,7.62
2018-06-01T21:47:15.674Z,8.23
2018-06-01T21:49:49.899Z,7.93
2018-06-01T21:52:24.096Z,8.38
2018-06-01T21:54:59.308Z,8.05
2018-06-01T21:57:33.512Z,9.13
2018-06-01T22:00:08.104Z,9.32
2018-06-01T22:02:42.311Z,9.00
2018-06-01T22:05:16.535Z,9.43
2018-06-01T22:07:51.513Z,10.68
2018-06-01T22:10:25.773Z,10.55
2018-06-01T22:12:59.982Z,9.80
2018-06-01T22:15:34.239Z,10.68
2018-06-01T22:18:09.438Z,10.63
2018-06-01T22:20:43.677Z,9.80
2018-06-01T22:23:18.672Z,9.60
2018-06-01T22:25:53.867Z,9.80
2018-06-01T22:28:28.104Z,10.73
2018-06-01T22:31:03.334Z,10.25
2018-06-01T22:33:38.311Z,10.35
2018-06-01T22:36:12.550Z,9.80
2018-06-01T22:38:48.502Z,9.57
2018-06-01T22:41:23.503Z,9.52
2018-06-01T22:43:57.729Z,11.07
2018-06-01T22:46:31.983Z,11.82
2018-06-01T22:49:06.184Z,10.20
2018-06-01T22:51:41.204Z,9.25
2018-06-01T22:54:16.181Z,9.45
2018-06-01T22:56:50.824Z,9.80
2018-06-01T22:59:25.038Z,9.55
2018-06-01T23:01:59.288Z,9.55
2018-06-01T23:04:33.497Z,8.52
2018-06-01T23:07:07.739Z,8.52
2018-06-01T23:09:41.937Z,8.20
2018-06-01T23:12:17.932Z,9.45
2018-06-01T23:14:52.142Z,9.68
2018-06-01T23:17:27.353Z,10.60
2018-06-01T23:20:02.314Z,9.18
2018-06-01T23:22:37.539Z,10.23
2018-06-01T23:25:11.766Z,10.43
2018-06-01T23:27:46.082Z,10.27
2018-06-01T23:30:20.302Z,10.25
2018-06-01T23:32:54.556Z,8.85
2018-06-01T23:35:30.508Z,10.88
2018-06-01T23:38:04.744Z,9.60
2018-06-01T23:40:39.705Z,9.38
2018-06-01T23:43:14.926Z,10.18
2018-06-01T23:45:50.096Z,10.40
2018-06-01T23:48:25.325Z,10.45
2018-06-01T23:50:59.541Z,10.90
2018-06-01T23:53:33.807Z,10.63
2018-06-01T23:56:08.794Z,10.75
2018-06-01T23:58:43.054Z,10.45
